sensor_id;sensor_type;location;lat;lon;timestamp;pressure;altitude;pressure_sealevel;temperature;humidity
41947;BME280;27638;42.184;24.848;2023-03-18T00:01:23;100456.72;;;7.71;54.84
41947;BME280;27638;42.184;24.848;2023-03-18T00:03:49;100449.28;;;7.76;54.41
41947;BME280;27638;42.184;24.848;2023-03-18T00:06:17;100445.22;;;7.92;53.71
41947;BME280;27638;42.184;24.848;2023-03-18T00:08:44;100438.09;;;7.83;53.93
41947;BME280;27638;42.184;24.848;2023-03-18T00:11:11;100432.50;;;7.77;54.93
41947;BME280;27638;42.184;24.848;2023-03-18T00:13:37;100430.88;;;7.64;54.50
41947;BME280;27638;42.184;24.848;2023-03-18T00:16:04;100428.44;;;7.73;54.12
41947;BME280;27638;42.184;24.848;2023-03-18T00:18:31;100426.50;;;7.75;54.48
41947;BME280;27638;42.184;24.848;2023-03-18T00:20:57;100419.34;;;7.65;55.13
41947;BME280;27638;42.184;24.848;2023-03-18T00:23:25;100410.38;;;7.68;54.65
41947;BME280;27638;42.184;24.848;2023-03-18T00:25:53;100413.25;;;7.86;54.58
41947;BME280;27638;42.184;24.848;2023-03-18T00:28:21;100411.34;;;8.09;54.72
41947;BME280;27638;42.184;24.848;2023-03-18T00:30:47;100413.09;;;8.29;54.12
41947;BME280;27638;42.184;24.848;2023-03-18T00:33:14;100409.91;;;8.25;53.43
41947;BME280;27638;42.184;24.848;2023-03-18T00:35:40;100407.97;;;8.07;54.00
41947;BME280;27638;42.184;24.848;2023-03-18T00:38:05;100398.16;;;7.88;54.72
41947;BME280;27638;42.184;24.848;2023-03-18T00:40:33;100400.84;;;7.97;55.38
41947;BME280;27638;42.184;24.848;2023-03-18T00:43:21;100395.94;;;8.14;54.77
41947;BME280;27638;42.184;24.848;2023-03-18T00:45:49;100390.94;;;8.11;54.67
41947;BME280;27638;42.184;24.848;2023-03-18T00:48:16;100387.78;;;8.17;54.06
41947;BME280;27638;42.184;24.848;2023-03-18T00:50:42;100389.53;;;8.07;54.40
41947;BME280;27638;42.184;24.848;2023-03-18T00:53:09;100381.09;;;7.71;56.60
41947;BME280;27638;42.184;24.848;2023-03-18T00:55:35;100380.16;;;7.72;55.64
41947;BME280;27638;42.184;24.848;2023-03-18T00:58:01;100386.38;;;7.71;54.40
41947;BME280;27638;42.184;24.848;2023-03-18T01:00:27;100382.13;;;7.59;54.97
41947;BME280;27638;42.184;24.848;2023-03-18T01:02:53;100375.06;;;7.59;54.71
41947;BME280;27638;42.184;24.848;2023-03-18T01:05:19;100377.63;;;7.71;54.01
41947;BME280;27638;42.184;24.848;2023-03-18T01:07:45;100378.34;;;7.93;53.86
41947;BME280;27638;42.184;24.848;2023-03-18T01:10:11;100380.91;;;7.84;53.69
41947;BME280;27638;42.184;24.848;2023-03-18T01:12:37;100381.31;;;7.79;53.97
41947;BME280;27638;42.184;24.848;2023-03-18T01:15:03;100385.94;;;7.87;53.58
41947;BME280;27638;42.184;24.848;2023-03-18T01:17:30;100381.28;;;8.00;53.68
41947;BME280;27638;42.184;24.848;2023-03-18T01:19:56;100378.16;;;7.85;53.49
41947;BME280;27638;42.184;24.848;2023-03-18T01:22:22;100376.94;;;7.89;53.62
41947;BME280;27638;42.184;24.848;2023-03-18T01:24:47;100383.22;;;7.98;52.99
41947;BME280;27638;42.184;24.848;2023-03-18T01:27:13;100377.66;;;8.22;52.97
41947;BME280;27638;42.184;24.848;2023-03-18T01:29:38;100377.66;;;8.22;52.64
41947;BME280;27638;42.184;24.848;2023-03-18T01:32:05;100382.06;;;8.12;53.55
41947;BME280;27638;42.184;24.848;2023-03-18T01:34:31;100376.03;;;8.00;54.17
41947;BME280;27638;42.184;24.848;2023-03-18T01:36:56;100383.28;;;7.87;55.15
41947;BME280;27638;42.184;24.848;2023-03-18T01:39:22;100378.72;;;7.89;55.11
41947;BME280;27638;42.184;24.848;2023-03-18T01:41:49;100371.13;;;7.95;55.14
41947;BME280;27638;42.184;24.848;2023-03-18T01:44:20;100368.94;;;8.00;55.32
41947;BME280;27638;42.184;24.848;2023-03-18T01:46:47;100363.94;;;7.97;55.11
41947;BME280;27638;42.184;24.848;2023-03-18T01:52:06;100366.00;;;7.94;55.05
41947;BME280;27638;42.184;24.848;2023-03-18T01:54:36;100374.16;;;7.91;55.82
41947;BME280;27638;42.184;24.848;2023-03-18T01:57:03;100369.19;;;7.97;55.63
41947;BME280;27638;42.184;24.848;2023-03-18T01:59:31;100371.84;;;7.97;55.42
41947;BME280;27638;42.184;24.848;2023-03-18T02:02:11;100369.34;;;7.96;55.22
41947;BME280;27638;42.184;24.848;2023-03-18T02:04:41;100369.72;;;7.91;55.17
41947;BME280;27638;42.184;24.848;2023-03-18T02:07:16;100372.44;;;7.80;55.73
41947;BME280;27638;42.184;24.848;2023-03-18T02:09:43;100372.56;;;7.79;55.96
41947;BME280;27638;42.184;24.848;2023-03-18T02:12:10;100370.25;;;7.85;55.50
41947;BME280;27638;42.184;24.848;2023-03-18T02:14:37;100370.94;;;7.87;55.71
41947;BME280;27638;42.184;24.848;2023-03-18T02:17:08;100370.38;;;7.84;55.80
41947;BME280;27638;42.184;24.848;2023-03-18T02:27:31;100369.03;;;7.89;55.86
41947;BME280;27638;42.184;24.848;2023-03-18T02:30:06;100374.94;;;7.82;56.55
41947;BME280;27638;42.184;24.848;2023-03-18T02:32:33;100377.38;;;7.94;56.40
41947;BME280;27638;42.184;24.848;2023-03-18T02:35:02;100365.03;;;7.95;55.64
41947;BME280;27638;42.184;24.848;2023-03-18T02:37:29;100365.22;;;8.03;56.52
41947;BME280;27638;42.184;24.848;2023-03-18T02:39:54;100375.75;;;8.03;55.87
41947;BME280;27638;42.184;24.848;2023-03-18T02:42:30;100367.41;;;7.98;56.52
41947;BME280;27638;42.184;24.848;2023-03-18T02:44:57;100365.88;;;7.95;56.56
41947;BME280;27638;42.184;24.848;2023-03-18T02:47:24;100375.84;;;7.92;56.76
41947;BME280;27638;42.184;24.848;2023-03-18T02:49:51;100378.34;;;7.93;56.98
41947;BME280;27638;42.184;24.848;2023-03-18T02:52:17;100369.19;;;7.97;57.08
41947;BME280;27638;42.184;24.848;2023-03-18T02:54:42;100378.72;;;8.10;56.77
41947;BME280;27638;42.184;24.848;2023-03-18T02:57:08;100385.34;;;8.04;56.20
41947;BME280;27638;42.184;24.848;2023-03-18T02:59:33;100373.66;;;7.97;56.67
41947;BME280;27638;42.184;24.848;2023-03-18T03:01:59;100377.63;;;7.91;57.30
41947;BME280;27638;42.184;24.848;2023-03-18T03:04:26;100385.41;;;7.93;57.12
41947;BME280;27638;42.184;24.848;2023-03-18T03:06:53;100390.88;;;8.01;57.42
41947;BME280;27638;42.184;24.848;2023-03-18T03:09:19;100391.13;;;7.98;57.58
41947;BME280;27638;42.184;24.848;2023-03-18T03:11:47;100373.38;;;8.00;57.60
41947;BME280;27638;42.184;24.848;2023-03-18T03:14:14;100380.91;;;8.05;57.14
41947;BME280;27638;42.184;24.848;2023-03-18T03:16:40;100385.22;;;8.06;57.55
41947;BME280;27638;42.184;24.848;2023-03-18T03:19:05;100383.88;;;7.90;58.04
41947;BME280;27638;42.184;24.848;2023-03-18T03:21:32;100386.69;;;7.98;57.35
41947;BME280;27638;42.184;24.848;2023-03-18T03:24:04;100390.81;;;7.91;57.88
41947;BME280;27638;42.184;24.848;2023-03-18T03:26:30;100387.53;;;7.99;56.97
41947;BME280;27638;42.184;24.848;2023-03-18T03:28:56;100386.22;;;8.14;57.16
41947;BME280;27638;42.184;24.848;2023-03-18T03:31:22;100382.75;;;8.14;56.16
41947;BME280;27638;42.184;24.848;2023-03-18T03:33:49;100382.72;;;8.04;56.18
41947;BME280;27638;42.184;24.848;2023-03-18T03:36:15;100381.56;;;7.97;56.10
41947;BME280;27638;42.184;24.848;2023-03-18T03:38:41;100385.53;;;7.91;56.28
41947;BME280;27638;42.184;24.848;2023-03-18T03:41:08;100384.25;;;7.86;56.10
41947;BME280;27638;42.184;24.848;2023-03-18T03:43:36;100391.84;;;8.00;55.58
41947;BME280;27638;42.184;24.848;2023-03-18T03:46:03;100386.84;;;7.76;55.27
41947;BME280;27638;42.184;24.848;2023-03-18T03:48:28;100388.06;;;7.72;55.14
41947;BME280;27638;42.184;24.848;2023-03-18T03:50:54;100394.28;;;7.92;55.06
41947;BME280;27638;42.184;24.848;2023-03-18T03:53:20;100393.31;;;8.14;53.81
41947;BME280;27638;42.184;24.848;2023-03-18T03:55:46;100391.13;;;8.19;54.10
41947;BME280;27638;42.184;24.848;2023-03-18T03:58:12;100398.22;;;7.97;54.71
41947;BME280;27638;42.184;24.848;2023-03-18T04:00:38;100386.38;;;8.13;54.10
41947;BME280;27638;42.184;24.848;2023-03-18T04:03:04;100390.16;;;8.20;53.77
41947;BME280;27638;42.184;24.848;2023-03-18T04:05:30;100386.97;;;8.26;54.12
41947;BME280;27638;42.184;24.848;2023-03-18T04:07:55;100393.66;;;8.30;54.17
41947;BME280;27638;42.184;24.848;2023-03-18T04:10:24;100391.75;;;8.32;53.92
41947;BME280;27638;42.184;24.848;2023-03-18T04:12:51;100389.97;;;8.32;54.08
41947;BME280;27638;42.184;24.848;2023-03-18T04:15:18;100392.38;;;8.36;53.86
41947;BME280;27638;42.184;24.848;2023-03-18T04:17:44;100397.53;;;8.37;54.45
41947;BME280;27638;42.184;24.848;2023-03-18T04:20:11;100390.56;;;8.36;54.14
41947;BME280;27638;42.184;24.848;2023-03-18T04:22:36;100393.06;;;8.38;54.11
41947;BME280;27638;42.184;24.848;2023-03-18T04:25:03;100394.22;;;8.45;54.09
41947;BME280;27638;42.184;24.848;2023-03-18T04:27:29;100402.53;;;8.40;53.84
41947;BME280;27638;42.184;24.848;2023-03-18T04:29:54;100391.13;;;8.40;54.26
41947;BME280;27638;42.184;24.848;2023-03-18T04:32:20;100397.53;;;8.37;54.37
41947;BME280;27638;42.184;24.848;2023-03-18T04:34:45;100398.47;;;8.36;54.35
41947;BME280;27638;42.184;24.848;2023-03-18T04:37:11;100401.00;;;8.38;54.64
41947;BME280;27638;42.184;24.848;2023-03-18T04:39:39;100394.38;;;8.32;54.26
41947;BME280;27638;42.184;24.848;2023-03-18T04:42:05;100400.44;;;8.23;55.02
41947;BME280;27638;42.184;24.848;2023-03-18T04:44:30;100401.41;;;8.22;55.19
41947;BME280;27638;42.184;24.848;2023-03-18T04:46:56;100400.00;;;8.18;55.64
41947;BME280;27638;42.184;24.848;2023-03-18T04:49:21;100409.31;;;8.22;55.83
41947;BME280;27638;42.184;24.848;2023-03-18T04:51:48;100404.31;;;8.19;55.98
41947;BME280;27638;42.184;24.848;2023-03-18T04:54:14;100413.56;;;8.13;56.37
41947;BME280;27638;42.184;24.848;2023-03-18T04:56:40;100413.44;;;8.15;56.16
41947;BME280;27638;42.184;24.848;2023-03-18T04:59:05;100411.00;;;8.23;56.46
41947;BME280;27638;42.184;24.848;2023-03-18T05:01:31;100407.56;;;8.32;56.38
41947;BME280;27638;42.184;24.848;2023-03-18T05:03:58;100407.56;;;8.32;55.52
41947;BME280;27638;42.184;24.848;2023-03-18T05:06:26;100402.50;;;8.19;55.82
41947;BME280;27638;42.184;24.848;2023-03-18T05:08:53;100406.25;;;8.17;56.61
41947;BME280;27638;42.184;24.848;2023-03-18T05:11:19;100405.84;;;8.21;57.08
41947;BME280;27638;42.184;24.848;2023-03-18T05:13:44;100408.63;;;8.20;57.03
41947;BME280;27638;42.184;24.848;2023-03-18T05:16:10;100414.28;;;8.15;57.08
41947;BME280;27638;42.184;24.848;2023-03-18T05:18:36;100417.50;;;8.19;58.07
41947;BME280;27638;42.184;24.848;2023-03-18T05:21:02;100419.56;;;8.15;57.90
41947;BME280;27638;42.184;24.848;2023-03-18T05:23:29;100413.75;;;8.21;57.68
41947;BME280;27638;42.184;24.848;2023-03-18T05:25:56;100416.00;;;8.26;57.72
41947;BME280;27638;42.184;24.848;2023-03-18T05:28:22;100425.13;;;8.33;57.42
41947;BME280;27638;42.184;24.848;2023-03-18T05:30:47;100427.38;;;8.38;57.18
41947;BME280;27638;42.184;24.848;2023-03-18T05:33:13;100420.91;;;8.30;55.85
41947;BME280;27638;42.184;24.848;2023-03-18T05:35:39;100425.84;;;8.24;55.51
41947;BME280;27638;42.184;24.848;2023-03-18T05:38:04;100433.72;;;7.73;57.54
41947;BME280;27638;42.184;24.848;2023-03-18T05:40:31;100430.44;;;8.01;56.33
41947;BME280;27638;42.184;24.848;2023-03-18T05:42:56;100434.75;;;8.02;56.38
41947;BME280;27638;42.184;24.848;2023-03-18T05:45:22;100431.84;;;8.05;56.61
41947;BME280;27638;42.184;24.848;2023-03-18T05:47:48;100430.81;;;7.96;56.46
41947;BME280;27638;42.184;24.848;2023-03-18T05:50:16;100432.69;;;8.06;56.71
41947;BME280;27638;42.184;24.848;2023-03-18T05:52:42;100429.53;;;8.12;55.82
41947;BME280;27638;42.184;24.848;2023-03-18T05:55:12;100424.31;;;8.21;56.01
41947;BME280;27638;42.184;24.848;2023-03-18T05:57:38;100428.47;;;8.35;56.14
41947;BME280;27638;42.184;24.848;2023-03-18T06:00:04;100427.56;;;8.46;55.74
41947;BME280;27638;42.184;24.848;2023-03-18T06:02:30;100428.53;;;8.45;55.29
41947;BME280;27638;42.184;24.848;2023-03-18T06:04:56;100426.69;;;8.36;55.35
41947;BME280;27638;42.184;24.848;2023-03-18T06:07:22;100429.72;;;8.20;55.74
41947;BME280;27638;42.184;24.848;2023-03-18T06:09:48;100428.19;;;7.96;56.80
41947;BME280;27638;42.184;24.848;2023-03-18T06:12:14;100421.63;;;7.91;57.05
41947;BME280;27638;42.184;24.848;2023-03-18T06:14:39;100416.16;;;8.04;57.03
41947;BME280;27638;42.184;24.848;2023-03-18T06:17:05;100425.16;;;8.01;57.62
41947;BME280;27638;42.184;24.848;2023-03-18T06:19:30;100421.44;;;8.04;58.56
41947;BME280;27638;42.184;24.848;2023-03-18T06:21:56;100422.34;;;7.93;59.49
41947;BME280;27638;42.184;24.848;2023-03-18T06:24:23;100422.47;;;7.91;59.35
41947;BME280;27638;42.184;24.848;2023-03-18T06:26:48;100427.78;;;7.80;60.14
41947;BME280;27638;42.184;24.848;2023-03-18T06:29:13;100423.75;;;7.76;60.31
41947;BME280;27638;42.184;24.848;2023-03-18T06:31:39;100421.25;;;7.95;60.04
41947;BME280;27638;42.184;24.848;2023-03-18T06:34:04;100416.81;;;7.96;59.69
41947;BME280;27638;42.184;24.848;2023-03-18T06:36:30;100416.59;;;8.09;59.98
41947;BME280;27638;42.184;24.848;2023-03-18T06:38:56;100405.97;;;8.20;59.21
41947;BME280;27638;42.184;24.848;2023-03-18T06:41:21;100406.53;;;8.35;58.51
41947;BME280;27638;42.184;24.848;2023-03-18T06:43:47;100409.38;;;8.31;58.69
41947;BME280;27638;42.184;24.848;2023-03-18T06:46:15;100406.28;;;8.26;58.85
41947;BME280;27638;42.184;24.848;2023-03-18T06:48:40;100407.78;;;8.19;59.35
41947;BME280;27638;42.184;24.848;2023-03-18T06:51:06;100405.06;;;8.30;59.06
41947;BME280;27638;42.184;24.848;2023-03-18T06:53:32;100407.13;;;8.27;58.79
41947;BME280;27638;42.184;24.848;2023-03-18T06:55:59;100413.94;;;8.29;59.50
41947;BME280;27638;42.184;24.848;2023-03-18T06:58:25;100413.09;;;8.29;59.53
41947;BME280;27638;42.184;24.848;2023-03-18T07:00:51;100414.66;;;8.31;59.16
41947;BME280;27638;42.184;24.848;2023-03-18T07:03:16;100411.03;;;8.44;58.98
41947;BME280;27638;42.184;24.848;2023-03-18T07:05:42;100418.41;;;8.50;58.38
41947;BME280;27638;42.184;24.848;2023-03-18T07:08:08;100418.16;;;8.53;58.21
41947;BME280;27638;42.184;24.848;2023-03-18T07:10:34;100410.53;;;8.59;58.47
41947;BME280;27638;42.184;24.848;2023-03-18T07:12:59;100412.50;;;8.67;57.07
41947;BME280;27638;42.184;24.848;2023-03-18T07:15:26;100412.03;;;8.52;55.53
41947;BME280;27638;42.184;24.848;2023-03-18T07:17:51;100405.34;;;8.48;55.35
41947;BME280;27638;42.184;24.848;2023-03-18T07:20:17;100403.06;;;8.23;55.82
41947;BME280;27638;42.184;24.848;2023-03-18T07:22:44;100406.72;;;8.43;55.91
41947;BME280;27638;42.184;24.848;2023-03-18T07:25:10;100399.94;;;8.50;56.08
41947;BME280;27638;42.184;24.848;2023-03-18T07:27:37;100399.97;;;8.59;55.35
41947;BME280;27638;42.184;24.848;2023-03-18T07:30:04;100392.50;;;8.64;55.79
41947;BME280;27638;42.184;24.848;2023-03-18T07:32:30;100391.84;;;8.82;56.00
41947;BME280;27638;42.184;24.848;2023-03-18T07:34:55;100398.97;;;9.01;56.11
41947;BME280;27638;42.184;24.848;2023-03-18T07:37:22;100400.53;;;9.32;55.73
41947;BME280;27638;42.184;24.848;2023-03-18T07:39:47;100399.88;;;9.49;53.96
41947;BME280;27638;42.184;24.848;2023-03-18T07:42:13;100404.19;;;9.50;54.18
41947;BME280;27638;42.184;24.848;2023-03-18T07:44:38;100414.63;;;9.52;53.67
41947;BME280;27638;42.184;24.848;2023-03-18T07:47:04;100406.56;;;9.73;53.60
41947;BME280;27638;42.184;24.848;2023-03-18T07:49:30;100414.22;;;9.76;52.74
41947;BME280;27638;42.184;24.848;2023-03-18T07:51:56;100416.72;;;9.68;52.65
41947;BME280;27638;42.184;24.848;2023-03-18T07:54:21;100423.69;;;9.78;52.42
41947;BME280;27638;42.184;24.848;2023-03-18T07:56:48;100426.03;;;9.81;51.37
41947;BME280;27638;42.184;24.848;2023-03-18T07:59:14;100425.63;;;9.86;51.80
41947;BME280;27638;42.184;24.848;2023-03-18T08:01:40;100428.25;;;9.86;50.58
41947;BME280;27638;42.184;24.848;2023-03-18T08:04:06;100434.13;;;9.70;50.98
41947;BME280;27638;42.184;24.848;2023-03-18T08:06:31;100428.56;;;9.73;50.87
41947;BME280;27638;42.184;24.848;2023-03-18T08:08:57;100426.75;;;9.74;50.59
41947;BME280;27638;42.184;24.848;2023-03-18T08:11:23;100428.97;;;9.59;50.81
41947;BME280;27638;42.184;24.848;2023-03-18T08:13:48;100427.72;;;9.63;50.70
41947;BME280;27638;42.184;24.848;2023-03-18T08:16:14;100415.31;;;9.73;51.56
41947;BME280;27638;42.184;24.848;2023-03-18T08:18:39;100417.00;;;9.84;51.19
41947;BME280;27638;42.184;24.848;2023-03-18T08:21:05;100418.09;;;9.91;50.64
41947;BME280;27638;42.184;24.848;2023-03-18T08:23:32;100419.63;;;9.93;50.37
41947;BME280;27638;42.184;24.848;2023-03-18T08:25:57;100422.28;;;9.93;49.98
41947;BME280;27638;42.184;24.848;2023-03-18T08:28:24;100425.59;;;10.05;49.79
41947;BME280;27638;42.184;24.848;2023-03-18T08:30:57;100430.63;;;9.89;49.97
41947;BME280;27638;42.184;24.848;2023-03-18T08:33:24;100423.41;;;9.72;50.46
41947;BME280;27638;42.184;24.848;2023-03-18T08:35:51;100436.63;;;9.72;49.98
41947;BME280;27638;42.184;24.848;2023-03-18T08:38:17;100430.09;;;9.56;50.48
41947;BME280;27638;42.184;24.848;2023-03-18T08:40:43;100429.66;;;9.61;49.69
41947;BME280;27638;42.184;24.848;2023-03-18T08:43:10;100422.16;;;9.76;49.54
41947;BME280;27638;42.184;24.848;2023-03-18T08:45:37;100432.16;;;9.72;49.12
41947;BME280;27638;42.184;24.848;2023-03-18T08:48:03;100426.59;;;9.85;48.97
41947;BME280;27638;42.184;24.848;2023-03-18T08:50:28;100434.78;;;10.01;48.90
41947;BME280;27638;42.184;24.848;2023-03-18T08:52:55;100438.56;;;9.99;48.66
41947;BME280;27638;42.184;24.848;2023-03-18T08:55:26;100444.25;;;10.13;48.89
41947;BME280;27638;42.184;24.848;2023-03-18T08:57:52;100442.59;;;10.03;49.34
41947;BME280;27638;42.184;24.848;2023-03-18T09:00:18;100444.41;;;10.02;48.38
41947;BME280;27638;42.184;24.848;2023-03-18T09:02:44;100441.03;;;10.19;48.00
41947;BME280;27638;42.184;24.848;2023-03-18T09:05:10;100447.72;;;10.14;47.89
41947;BME280;27638;42.184;24.848;2023-03-18T09:07:35;100452.47;;;10.30;47.54
41947;BME280;27638;42.184;24.848;2023-03-18T09:10:01;100452.72;;;10.36;47.23
41947;BME280;27638;42.184;24.848;2023-03-18T09:12:26;100448.25;;;10.37;47.19
41947;BME280;27638;42.184;24.848;2023-03-18T09:14:52;100455.06;;;10.39;47.69
41947;BME280;27638;42.184;24.848;2023-03-18T09:17:18;100457.03;;;10.47;47.62
41947;BME280;27638;42.184;24.848;2023-03-18T09:19:43;100450.91;;;10.37;47.56
41947;BME280;27638;42.184;24.848;2023-03-18T09:22:09;100454.69;;;10.24;47.94
41947;BME280;27638;42.184;24.848;2023-03-18T09:24:35;100453.84;;;10.24;48.08
41947;BME280;27638;42.184;24.848;2023-03-18T09:27:00;100454.16;;;9.92;48.27
41947;BME280;27638;42.184;24.848;2023-03-18T09:29:26;100455.41;;;9.78;49.69
41947;BME280;27638;42.184;24.848;2023-03-18T09:31:52;100466.56;;;9.82;49.88
41947;BME280;27638;42.184;24.848;2023-03-18T09:34:17;100466.81;;;9.98;48.84
41947;BME280;27638;42.184;24.848;2023-03-18T09:36:43;100475.03;;;9.76;49.61
41947;BME280;27638;42.184;24.848;2023-03-18T09:39:16;100481.50;;;9.33;50.36
41947;BME280;27638;42.184;24.848;2023-03-18T09:44:30;100481.53;;;8.62;54.77
41947;BME280;27638;42.184;24.848;2023-03-18T09:50:05;100481.25;;;8.35;55.32
41947;BME280;27638;42.184;24.848;2023-03-18T09:52:38;100487.88;;;8.50;54.61
41947;BME280;27638;42.184;24.848;2023-03-18T09:57:42;100478.19;;;8.60;56.10
41947;BME280;27638;42.184;24.848;2023-03-18T10:00:38;100487.44;;;8.45;53.25
41947;BME280;27638;42.184;24.848;2023-03-18T10:03:14;100485.66;;;8.55;54.17
41947;BME280;27638;42.184;24.848;2023-03-18T10:05:50;100489.19;;;8.66;54.99
41947;BME280;27638;42.184;24.848;2023-03-18T10:08:25;100487.41;;;8.66;55.09
41947;BME280;27638;42.184;24.848;2023-03-18T10:11:00;100494.38;;;8.77;55.19
41947;BME280;27638;42.184;24.848;2023-03-18T10:13:32;100488.31;;;8.86;53.92
41947;BME280;27638;42.184;24.848;2023-03-18T10:16:03;100490.25;;;8.84;52.41
41947;BME280;27638;42.184;24.848;2023-03-18T10:18:30;100488.63;;;8.92;51.74
41947;BME280;27638;42.184;24.848;2023-03-18T10:34:37;100493.97;;;9.12;47.88
41947;BME280;27638;42.184;24.848;2023-03-18T10:39:48;100490.31;;;9.43;48.20
41947;BME280;27638;42.184;24.848;2023-03-18T10:42:24;100500.19;;;9.41;47.43
41947;BME280;27638;42.184;24.848;2023-03-18T10:44:50;100496.31;;;9.45;47.78
41947;BME280;27638;42.184;24.848;2023-03-18T10:47:31;100488.78;;;9.41;46.92
41947;BME280;27638;42.184;24.848;2023-03-18T10:50:15;100491.47;;;9.10;48.26
41947;BME280;27638;42.184;24.848;2023-03-18T10:53:05;100488.16;;;9.27;49.25
41947;BME280;27638;42.184;24.848;2023-03-18T10:55:43;100489.19;;;8.96;49.77
41947;BME280;27638;42.184;24.848;2023-03-18T10:58:16;100483.66;;;9.09;50.03
41947;BME280;27638;42.184;24.848;2023-03-18T11:00:42;100499.28;;;9.21;48.39
41947;BME280;27638;42.184;24.848;2023-03-18T11:03:30;100484.97;;;9.34;48.21
41947;BME280;27638;42.184;24.848;2023-03-18T11:05:59;100488.38;;;9.55;47.67
41947;BME280;27638;42.184;24.848;2023-03-18T11:08:32;100478.22;;;9.50;45.30
41947;BME280;27638;42.184;24.848;2023-03-18T11:11:29;100480.63;;;9.82;44.85
41947;BME280;27638;42.184;24.848;2023-03-18T11:13:58;100483.25;;;10.02;45.73
41947;BME280;27638;42.184;24.848;2023-03-18T11:18:57;100472.53;;;10.22;43.52
41947;BME280;27638;42.184;24.848;2023-03-18T11:21:24;100464.72;;;10.31;44.10
41947;BME280;27638;42.184;24.848;2023-03-18T11:24:00;100469.03;;;10.41;44.04
41947;BME280;27638;42.184;24.848;2023-03-18T11:27:02;100463.91;;;10.20;43.93
41947;BME280;27638;42.184;24.848;2023-03-18T11:29:31;100466.50;;;10.40;43.94
41947;BME280;27638;42.184;24.848;2023-03-18T11:31:59;100460.66;;;10.46;41.62
41947;BME280;27638;42.184;24.848;2023-03-18T11:34:30;100449.09;;;10.47;43.13
41947;BME280;27638;42.184;24.848;2023-03-18T11:36:58;100457.44;;;10.52;42.50
41947;BME280;27638;42.184;24.848;2023-03-18T11:39:34;100453.63;;;10.64;40.88
41947;BME280;27638;42.184;24.848;2023-03-18T11:42:18;100443.34;;;10.61;40.96
41947;BME280;27638;42.184;24.848;2023-03-18T11:44:46;100446.63;;;10.73;40.79
41947;BME280;27638;42.184;24.848;2023-03-18T11:47:20;100446.44;;;10.84;41.46
41947;BME280;27638;42.184;24.848;2023-03-18T11:49:47;100445.03;;;10.90;41.36
41947;BME280;27638;42.184;24.848;2023-03-18T12:00:20;100434.75;;;11.04;41.63
41947;BME280;27638;42.184;24.848;2023-03-18T12:14:00;100429.97;;;11.35;40.02
41947;BME280;27638;42.184;24.848;2023-03-18T12:41:49;100412.94;;;10.93;41.85
41947;BME280;27638;42.184;24.848;2023-03-18T12:47:17;100398.34;;;10.79;40.79
41947;BME280;27638;42.184;24.848;2023-03-18T12:49:55;100399.50;;;10.76;41.74
41947;BME280;27638;42.184;24.848;2023-03-18T12:52:27;100396.50;;;10.89;41.52
41947;BME280;27638;42.184;24.848;2023-03-18T12:55:05;100387.09;;;10.77;42.23
41947;BME280;27638;42.184;24.848;2023-03-18T13:05:50;100385.22;;;10.87;42.83
41947;BME280;27638;42.184;24.848;2023-03-18T13:08:55;100387.59;;;11.08;43.00
41947;BME280;27638;42.184;24.848;2023-03-18T13:14:26;100377.53;;;11.29;40.85
41947;BME280;27638;42.184;24.848;2023-03-18T13:16:55;100382.22;;;11.35;41.97
41947;BME280;27638;42.184;24.848;2023-03-18T13:19:23;100382.03;;;11.46;40.52
41947;BME280;27638;42.184;24.848;2023-03-18T13:21:53;100370.13;;;11.50;41.44
41947;BME280;27638;42.184;24.848;2023-03-18T13:27:34;100370.66;;;11.54;40.77
41947;BME280;27638;42.184;24.848;2023-03-18T13:35:58;100357.78;;;11.59;39.59
41947;BME280;27638;42.184;24.848;2023-03-18T13:43:58;100353.31;;;11.77;39.37
41947;BME280;27638;42.184;24.848;2023-03-18T13:46:28;100345.72;;;11.65;38.59
41947;BME280;27638;42.184;24.848;2023-03-18T13:48:57;100349.41;;;11.72;39.22
41947;BME280;27638;42.184;24.848;2023-03-18T13:53:51;100349.78;;;11.77;39.39
41947;BME280;27638;42.184;24.848;2023-03-18T13:59:02;100355.56;;;11.72;40.04
41947;BME280;27638;42.184;24.848;2023-03-18T14:01:48;100350.25;;;11.72;39.60
41947;BME280;27638;42.184;24.848;2023-03-18T14:04:31;100347.53;;;11.82;38.75
41947;BME280;27638;42.184;24.848;2023-03-18T14:07:14;100343.28;;;11.71;39.44
41947;BME280;27638;42.184;24.848;2023-03-18T14:12:45;100347.75;;;11.71;39.48
41947;BME280;27638;42.184;24.848;2023-03-18T14:17:44;100337.91;;;11.63;39.29
41947;BME280;27638;42.184;24.848;2023-03-18T14:22:45;100328.13;;;11.81;39.06
41947;BME280;27638;42.184;24.848;2023-03-18T14:25:18;100326.50;;;11.89;38.22
41947;BME280;27638;42.184;24.848;2023-03-18T14:28:15;100327.44;;;11.79;38.92
41947;BME280;27638;42.184;24.848;2023-03-18T14:30:46;100320.38;;;11.70;38.72
41947;BME280;27638;42.184;24.848;2023-03-18T14:35:57;100326.97;;;11.84;39.44
41947;BME280;27638;42.184;24.848;2023-03-18T14:38:30;100329.44;;;11.77;38.63
41947;BME280;27638;42.184;24.848;2023-03-18T14:40:59;100337.97;;;11.89;38.97
41947;BME280;27638;42.184;24.848;2023-03-18T14:43:39;100325.88;;;11.95;38.55
41947;BME280;27638;42.184;24.848;2023-03-18T14:46:16;100328.91;;;12.00;37.56
41947;BME280;27638;42.184;24.848;2023-03-18T14:48:43;100322.91;;;11.98;37.83
41947;BME280;27638;42.184;24.848;2023-03-18T14:51:16;100322.59;;;12.01;37.20
41947;BME280;27638;42.184;24.848;2023-03-18T14:54:03;100316.97;;;12.04;37.45
41947;BME280;27638;42.184;24.848;2023-03-18T14:56:37;100315.53;;;12.09;38.09
41947;BME280;27638;42.184;24.848;2023-03-18T14:59:03;100319.63;;;12.04;37.99
41947;BME280;27638;42.184;24.848;2023-03-18T15:01:39;100308.72;;;11.81;37.62